Whitesboro, OK (74577)

9:54 PM CST on December 25, 2014 (GMT -0600)
LCEM -Howe Middle School | Change Station
CLOSE
Current Station
Personal Weather Station
Location: Howe, OK
Elevation: 535 ft
Nearby Weather Stations

Elev 535 ft 34.95 °N, 94.64 °W | Updated 4 seconds ago

Clear
Clear
54.7 °F
Feels Like 54.7 °F
N
8.1
Wind Variable Wind from South
Gusts 16.0 mph

Today
High -- | Low -- °F
--% Chance of Precip.
Yesterday
High -- | Low -- °F
Precip. -- in
7:24 AM 5:14 PM
Waxing Crescent, 22% visible
Pressure 29.97 in
Visibility 10.0 miles
Clouds Clear
Dew Point 36 °F
Humidity 49%
Rainfall 1.47 in
Snow Depth Not available.
UV 0 out of 12
Pollen 6.10 out of 12
Air Quality Not available.
Flu Activity Not available.
METAR KRKR 260335Z AUTO 18005KT 10SM CLR 11/M01 A2997 RMK AO2 T01131013

More Conditions Fewer Conditions

Pressure 29.97 in
Visibility 10.0 miles
Clouds Clear
Dew Point 36 °F
Humidity 49%
Rainfall 1.47 in
Snow Depth Not available.
UV 0 out of 12
Pollen 6.10 out of 12
Air Quality Not available.
Flu Activity Not available.
METAR KRKR 260335Z AUTO 18005KT 10SM CLR 11/M01 A2997 RMK AO2 T01131013

More Conditions Fewer Conditions

10-Day Weather Forecast

Almanac

Astronomy

Dec. 25, 2014 Rise Set
Actual Time
Civil Twilight
Nautical Twilight
Astronomical Twilight
Moon
Length of Visible Light
Length of Day
Tomorrow will be .
, % of the Moon is Illuminated

Today's Extremes

State Highs State Lows

Community

WunderPhotos

Upload Photos

1,780,534 photos uploaded!

WunderBlogs® & News

Nearby

Air Quality

  Air Quality AQ Index Pollutant
Not available.

Snow Depth

Station Depth Elevation

Earthquake Activity

City Distance Mag. Time & Date
Minimum magnitude displayed is 2.5.

Coastal Water Temperatures

Place Temperature

Nearby Weather Stations